Time;durP1;ratioP1;P1;durP2;ratioP2;P2;SDS_P1;SDS_P2;PMS_P1;PMS_P2;Temp;Humidity;BMP_temperature;BMP_pressure;BME280_temperature;BME280_humidity;BME280_pressure;Samples;Min_cycle;Max_cycle;Signal;HPM_P1;HPM_P2
2022/11/14 00:02:21;;;;;;;44.53;17.45;;;7.20;99.90;;;;;;5050387;28;20083;-66
2022/11/14 00:04:47;;;;;;;43.70;17.98;;;7.20;99.90;;;;;;5048865;28;20040;-66
2022/11/14 00:07:13;;;;;;;49.70;19.15;;;7.20;99.90;;;;;;5050512;28;20048;-66
2022/11/14 00:09:41;;;;;;;48.03;18.95;;;7.20;99.90;;;;;;5051025;28;20408;-66
2022/11/14 00:12:08;;;;;;;41.88;18.40;;;7.20;99.90;;;;;;5050641;28;20044;-65
2022/11/14 00:14:34;;;;;;;46.25;19.05;;;7.10;99.90;;;;;;5050705;28;20033;-66
2022/11/14 00:17:00;;;;;;;50.42;18.67;;;7.20;99.90;;;;;;5050750;28;20506;-66
2022/11/14 00:19:25;;;;;;;52.17;19.08;;;7.20;99.90;;;;;;5050723;28;20044;-66
2022/11/14 00:21:52;;;;;;;45.33;18.08;;;7.10;99.90;;;;;;5050457;28;20029;-65
2022/11/14 00:24:18;;;;;;;46.97;18.33;;;7.20;99.90;;;;;;5050270;28;20033;-66
2022/11/14 00:26:44;;;;;;;48.85;21.15;;;7.20;99.90;;;;;;5050593;28;20036;-66
2022/11/14 00:29:13;;;;;;;52.70;20.83;;;7.10;99.90;;;;;;5050555;28;20103;-66
2022/11/14 00:31:39;;;;;;;43.88;19.35;;;7.20;99.90;;;;;;5050610;28;20111;-66
2022/11/14 00:34:04;;;;;;;52.05;21.25;;;7.20;99.90;;;;;;5050297;28;20110;-66
2022/11/14 00:36:30;;;;;;;51.03;20.20;;;7.20;99.90;;;;;;5050765;28;20041;-66
2022/11/14 00:38:56;;;;;;;46.63;19.75;;;7.30;99.90;;;;;;5050587;28;20515;-66
2022/11/14 00:41:22;;;;;;;47.00;20.85;;;7.30;99.90;;;;;;5050515;28;20547;-66
2022/11/14 00:43:48;;;;;;;46.88;19.50;;;7.40;99.90;;;;;;5049048;28;20064;-66
2022/11/14 00:46:13;;;;;;;53.65;22.10;;;7.30;99.90;;;;;;5050447;28;20037;-66
2022/11/14 00:48:39;;;;;;;45.25;20.63;;;7.30;99.90;;;;;;5050417;28;20045;-66
2022/11/14 00:51:05;;;;;;;52.58;20.73;;;7.30;99.90;;;;;;5050185;28;20051;-66
2022/11/14 00:53:30;;;;;;;50.15;21.13;;;7.30;99.90;;;;;;5050171;28;20044;-66
2022/11/14 00:55:56;;;;;;;47.78;21.13;;;7.30;99.90;;;;;;5050137;28;20080;-66
2022/11/14 00:58:21;;;;;;;57.78;23.38;;;7.30;99.90;;;;;;5050356;28;20040;-66
2022/11/14 01:00:47;;;;;;;54.80;23.95;;;7.30;99.90;;;;;;5050182;28;20053;-66
2022/11/14 01:03:13;;;;;;;54.63;22.10;;;7.30;99.90;;;;;;5052608;28;20064;-66
2022/11/14 01:05:43;;;;;;;62.78;24.10;;;7.30;99.90;;;;;;5053677;28;20439;-66
2022/11/14 01:08:10;;;;;;;52.88;22.48;;;7.20;99.90;;;;;;5053817;28;20041;-66
2022/11/14 01:10:43;;;;;;;55.50;23.45;;;7.20;99.90;;;;;;5053891;28;20120;-66
2022/11/14 01:13:09;;;;;;;54.42;23.08;;;7.20;99.90;;;;;;5053702;28;20558;-66
2022/11/14 01:15:43;;;;;;;59.15;24.35;;;7.20;99.90;;;;;;5053548;28;20473;-66
2022/11/14 01:18:16;;;;;;;56.17;23.45;;;7.20;99.90;;;;;;5053949;28;20044;-66
2022/11/14 01:20:43;;;;;;;62.55;24.95;;;7.20;99.90;;;;;;5053762;28;20048;-66
2022/11/14 01:23:10;;;;;;;59.03;23.48;;;7.10;99.90;;;;;;5053901;28;20029;-65
2022/11/14 01:25:38;;;;;;;54.65;22.80;;;7.10;99.90;;;;;;5053690;28;20119;-66
2022/11/14 01:28:09;;;;;;;55.25;24.92;;;7.10;99.90;;;;;;5053363;28;20037;-66
2022/11/14 01:30:36;;;;;;;58.47;23.73;;;7.20;99.90;;;;;;5053507;28;20056;-66
2022/11/14 01:33:02;;;;;;;59.30;25.27;;;7.10;99.90;;;;;;5053216;28;20033;-66
2022/11/14 01:35:28;;;;;;;56.10;23.00;;;7.20;99.90;;;;;;5053451;28;20044;-66
2022/11/14 01:37:53;;;;;;;62.28;25.10;;;7.20;99.90;;;;;;5053334;28;20091;-66
2022/11/14 01:40:19;;;;;;;55.85;24.75;;;7.10;99.90;;;;;;5053355;28;20080;-66
2022/11/14 01:43:09;;;;;;;58.80;25.20;;;7.10;99.90;;;;;;5052998;28;20033;-65
2022/11/14 01:45:55;;;;;;;70.35;27.30;;;7.10;99.90;;;;;;5052973;28;20037;-66
2022/11/14 01:48:30;;;;;;;63.92;25.55;;;7.20;99.90;;;;;;5053318;28;20045;-66
2022/11/14 01:51:24;;;;;;;59.38;25.52;;;7.20;99.90;;;;;;5053283;28;20051;-66
2022/11/14 01:53:52;;;;;;;61.30;25.50;;;7.10;99.90;;;;;;5051529;28;20049;-65
2022/11/14 01:56:23;;;;;;;59.10;25.58;;;7.10;99.90;;;;;;5053301;28;20055;-66
2022/11/14 01:59:19;;;;;;;62.50;27.33;;;7.20;99.90;;;;;;5053073;28;20052;-66
2022/11/14 02:01:47;;;;;;;62.30;24.10;;;7.10;99.90;;;;;;5047190;28;20143;-66
2022/11/14 02:04:25;;;;;;;63.47;25.27;;;7.00;99.90;;;;;;5052623;28;20037;-66
2022/11/14 02:06:54;;;;;;;60.72;25.83;;;7.00;99.90;;;;;;5053031;28;20123;-66
2022/11/14 02:09:20;;;;;;;69.55;27.08;;;7.00;99.90;;;;;;5052865;28;20509;-66
2022/11/14 02:11:46;;;;;;;59.60;24.88;;;7.00;99.90;;;;;;5052926;28;20043;-66
2022/11/14 02:14:12;;;;;;;62.47;25.98;;;6.90;99.90;;;;;;5052142;28;20033;-66
2022/11/14 02:16:42;;;;;;;60.42;25.73;;;6.90;99.90;;;;;;5053019;28;20033;-66
2022/11/14 02:19:08;;;;;;;66.30;27.35;;;6.90;99.90;;;;;;5052431;28;20124;-66
2022/11/14 02:21:34;;;;;;;63.42;26.05;;;6.90;99.90;;;;;;5052616;28;20044;-66
2022/11/14 02:23:59;;;;;;;62.30;24.55;;;6.90;99.90;;;;;;5052514;28;20029;-66
2022/11/14 02:26:25;;;;;;;64.15;25.05;;;6.90;99.90;;;;;;5052718;28;20115;-66
2022/11/14 02:28:50;;;;;;;64.78;26.85;;;6.90;99.90;;;;;;5052546;28;20493;-66
2022/11/14 02:31:16;;;;;;;67.22;26.33;;;6.80;99.90;;;;;;5052390;28;20036;-66
2022/11/14 02:33:42;;;;;;;63.13;24.40;;;6.90;99.90;;;;;;5052181;28;20509;-66
2022/11/14 02:36:08;;;;;;;66.78;27.77;;;6.90;99.90;;;;;;5052250;28;20073;-66
2022/11/14 02:38:34;;;;;;;58.53;25.58;;;6.90;99.90;;;;;;5052384;28;20133;-66
2022/11/14 02:41:00;;;;;;;66.82;26.17;;;6.90;99.90;;;;;;5052226;28;20091;-66
2022/11/14 02:43:26;;;;;;;64.65;26.30;;;6.90;99.90;;;;;;5051068;28;20040;-66
2022/11/14 02:45:51;;;;;;;66.68;26.83;;;6.80;99.90;;;;;;5051889;28;20044;-66
2022/11/14 02:48:17;;;;;;;64.75;26.48;;;6.80;99.90;;;;;;5052323;28;20033;-66
2022/11/14 02:50:43;;;;;;;64.18;26.05;;;6.80;99.90;;;;;;5052248;28;20037;-66
2022/11/14 02:53:09;;;;;;;62.67;25.20;;;6.80;99.90;;;;;;5052163;28;20394;-66
2022/11/14 02:55:34;;;;;;;65.25;25.77;;;6.80;99.90;;;;;;5051777;28;20570;-65
2022/11/14 02:58:00;;;;;;;67.07;26.52;;;6.80;99.90;;;;;;5050577;28;20053;-66
2022/11/14 03:00:26;;;;;;;62.55;25.20;;;6.90;99.90;;;;;;5050450;28;20405;-66
2022/11/14 03:02:53;;;;;;;65.50;28.05;;;6.80;99.90;;;;;;5051698;28;20029;-66
2022/11/14 03:05:19;;;;;;;61.63;25.17;;;6.90;99.90;;;;;;5051726;28;20044;-66
2022/11/14 03:07:44;;;;;;;58.75;25.92;;;6.80;99.90;;;;;;5051970;28;20063;-66
2022/11/14 03:10:10;;;;;;;66.75;25.45;;;6.90;99.90;;;;;;5051881;28;20489;-66
2022/11/14 03:12:36;;;;;;;60.25;25.70;;;6.90;99.90;;;;;;5051627;28;20111;-66
2022/11/14 03:15:04;;;;;;;64.53;25.10;;;6.80;99.90;;;;;;5051497;28;20044;-66
2022/11/14 03:17:33;;;;;;;58.25;25.00;;;6.80;99.90;;;;;;5052005;28;20118;-66
2022/11/14 03:19:59;;;;;;;61.58;28.27;;;6.80;99.90;;;;;;5051645;28;20427;-66
2022/11/14 03:22:25;;;;;;;64.47;25.05;;;6.80;99.90;;;;;;5051491;28;20124;-66
2022/11/14 03:24:50;;;;;;;64.47;26.10;;;6.80;99.90;;;;;;5051308;28;20071;-66
2022/11/14 03:27:16;;;;;;;64.53;26.77;;;6.80;99.90;;;;;;5050692;28;20037;-65
2022/11/14 03:29:41;;;;;;;64.97;26.15;;;6.80;99.90;;;;;;5051605;28;20045;-66
2022/11/14 03:32:07;;;;;;;62.53;26.50;;;6.80;99.90;;;;;;5051271;28;20070;-66
2022/11/14 03:34:33;;;;;;;63.00;25.83;;;6.80;99.90;;;;;;5051264;28;20068;-66
2022/11/14 03:36:59;;;;;;;63.65;25.85;;;6.70;99.90;;;;;;5051267;28;20037;-66
2022/11/14 03:39:25;;;;;;;61.10;27.08;;;6.70;99.90;;;;;;5051209;28;20116;-66
2022/11/14 03:41:50;;;;;;;58.63;24.65;;;6.80;99.90;;;;;;5050779;28;20133;-66
2022/11/14 03:44:16;;;;;;;65.40;24.50;;;6.80;99.90;;;;;;5050803;28;20037;-66
2022/11/14 03:46:41;;;;;;;66.20;26.05;;;6.70;99.90;;;;;;5051053;28;20041;-66
2022/11/14 03:49:07;;;;;;;57.25;24.80;;;6.80;99.90;;;;;;5051091;28;20037;-66
2022/11/14 03:51:33;;;;;;;61.20;25.38;;;6.80;99.90;;;;;;5051099;28;20116;-66
2022/11/14 03:53:58;;;;;;;61.72;25.67;;;6.80;99.90;;;;;;5050618;28;20123;-66
2022/11/14 03:56:24;;;;;;;67.32;26.83;;;6.80;99.90;;;;;;5051306;28;20143;-66
2022/11/14 03:58:49;;;;;;;62.13;25.55;;;6.80;99.90;;;;;;5050632;28;20596;-66
2022/11/14 04:01:15;;;;;;;59.97;25.05;;;6.70;99.90;;;;;;5050761;28;20049;-66
2022/11/14 04:03:40;;;;;;;60.00;25.15;;;6.70;99.90;;;;;;5049213;28;20041;-66
2022/11/14 04:06:06;;;;;;;60.35;25.42;;;6.70;99.90;;;;;;5050675;28;20493;-66
2022/11/14 04:08:32;;;;;;;60.78;25.55;;;6.80;99.90;;;;;;5050302;28;20596;-66
2022/11/14 04:10:57;;;;;;;68.88;27.95;;;6.70;99.90;;;;;;5050665;28;20036;-66
2022/11/14 04:13:23;;;;;;;65.38;27.27;;;6.70;99.90;;;;;;5050433;28;20072;-66
2022/11/14 04:15:56;;;;;;;68.40;26.92;;;6.60;99.90;;;;;;5049299;28;20052;-66
2022/11/14 04:18:21;;;;;;;62.08;26.15;;;6.70;99.90;;;;;;5050541;28;20051;-66
2022/11/14 04:20:47;;;;;;;65.95;26.02;;;6.80;99.90;;;;;;5050204;28;20119;-66
2022/11/14 04:23:12;;;;;;;59.17;25.13;;;6.80;99.90;;;;;;5050725;28;20043;-66
2022/11/14 04:25:38;;;;;;;59.40;25.45;;;6.70;99.90;;;;;;5050257;28;20041;-66
2022/11/14 04:28:04;;;;;;;60.25;24.58;;;6.70;99.90;;;;;;5050862;28;20060;-66
2022/11/14 04:30:29;;;;;;;62.85;26.05;;;6.70;99.90;;;;;;5050446;28;20055;-66
2022/11/14 04:32:55;;;;;;;68.35;27.10;;;6.70;99.90;;;;;;5050680;28;20036;-66
2022/11/14 04:35:20;;;;;;;61.35;26.30;;;6.70;99.90;;;;;;5050188;28;20045;-66
2022/11/14 04:37:46;;;;;;;62.40;26.77;;;6.70;99.90;;;;;;5052292;28;20123;-66
2022/11/14 04:40:11;;;;;;;65.80;28.15;;;6.70;99.90;;;;;;5054347;28;20137;-66
2022/11/14 04:42:37;;;;;;;69.30;27.98;;;6.70;99.90;;;;;;5054538;28;20032;-66
2022/11/14 04:45:03;;;;;;;63.05;26.75;;;6.80;99.90;;;;;;5052791;28;20048;-66
2022/11/14 04:47:28;;;;;;;57.95;24.92;;;6.80;99.90;;;;;;5054339;28;20033;-66
2022/11/14 04:49:54;;;;;;;60.63;25.35;;;6.70;99.90;;;;;;5054614;28;20048;-66
2022/11/14 04:52:19;;;;;;;61.92;26.65;;;6.70;99.90;;;;;;5054212;28;20119;-66
2022/11/14 04:54:45;;;;;;;59.45;25.42;;;6.70;99.90;;;;;;5054278;28;20041;-66
2022/11/14 04:57:10;;;;;;;65.65;27.38;;;6.80;99.90;;;;;;5054300;28;20045;-66
2022/11/14 04:59:36;;;;;;;68.63;27.02;;;6.80;99.90;;;;;;5054115;28;20064;-66
2022/11/14 05:02:01;;;;;;;60.25;25.77;;;6.80;99.90;;;;;;5053774;28;20493;-66
2022/11/14 05:04:27;;;;;;;57.92;25.33;;;6.70;99.90;;;;;;5054132;28;20033;-66
2022/11/14 05:06:52;;;;;;;62.15;26.40;;;6.70;99.90;;;;;;5054170;28;20047;-66
2022/11/14 05:09:18;;;;;;;64.95;26.27;;;6.70;99.90;;;;;;5054244;28;20033;-66
2022/11/14 05:11:43;;;;;;;62.72;26.52;;;6.60;99.90;;;;;;5053863;28;20201;-66
2022/11/14 05:14:09;;;;;;;60.42;25.85;;;6.60;99.90;;;;;;5053902;28;20045;-66
2022/11/14 05:16:34;;;;;;;61.85;26.38;;;6.70;99.90;;;;;;5053940;28;20408;-66
2022/11/14 05:19:00;;;;;;;59.05;25.00;;;6.70;99.90;;;;;;5053834;28;20047;-66
2022/11/14 05:21:25;;;;;;;63.80;26.65;;;6.60;99.90;;;;;;5053785;28;20040;-66
2022/11/14 05:23:51;;;;;;;63.33;25.45;;;6.70;99.90;;;;;;5053617;28;20558;-66
2022/11/14 05:26:17;;;;;;;59.65;25.80;;;6.60;99.90;;;;;;5053861;28;20489;-66
2022/11/14 05:28:43;;;;;;;68.50;26.77;;;6.70;99.90;;;;;;5053662;28;20568;-66
2022/11/14 05:31:18;;;;;;;62.88;25.33;;;6.60;99.90;;;;;;5053313;28;20128;-65
2022/11/14 05:33:44;;;;;;;66.25;26.05;;;6.60;99.90;;;;;;5052106;28;20044;-66
2022/11/14 05:36:15;;;;;;;63.03;26.02;;;6.60;99.90;;;;;;5053801;28;20053;-66
2022/11/14 05:38:41;;;;;;;64.18;25.80;;;6.60;99.90;;;;;;5053771;28;20091;-66
2022/11/14 05:41:15;;;;;;;64.05;25.58;;;6.70;99.90;;;;;;5053314;28;20447;-65
2022/11/14 05:43:41;;;;;;;70.85;27.10;;;6.60;99.90;;;;;;5053199;28;20564;-66
2022/11/14 05:46:10;;;;;;;66.28;26.13;;;6.60;99.90;;;;;;5053406;28;20116;-66
2022/11/14 05:48:37;;;;;;;67.68;26.58;;;6.70;99.90;;;;;;5051045;28;20405;-66
2022/11/14 05:51:04;;;;;;;64.15;26.80;;;6.60;99.90;;;;;;5053074;28;20052;-66
2022/11/14 05:53:32;;;;;;;69.50;27.75;;;6.60;99.90;;;;;;5053488;28;20049;-66
2022/11/14 05:56:05;;;;;;;63.20;25.20;;;6.60;99.90;;;;;;5052989;28;20099;-66
2022/11/14 05:58:31;;;;;;;63.75;25.13;;;6.60;99.90;;;;;;5053129;28;20045;-66
2022/11/14 06:01:13;;;;;;;62.00;26.15;;;6.60;99.90;;;;;;5052662;28;20175;-66
2022/11/14 06:03:41;;;;;;;62.50;25.42;;;6.50;99.90;;;;;;5053258;28;20094;-66
2022/11/14 06:06:09;;;;;;;63.45;27.63;;;6.60;99.90;;;;;;5051417;28;20127;-66
2022/11/14 06:08:36;;;;;;;71.45;27.10;;;6.60;99.90;;;;;;5052906;28;20033;-66
2022/11/14 06:11:08;;;;;;;67.05;25.08;;;6.60;99.90;;;;;;5053082;28;20076;-66
2022/11/14 06:13:34;;;;;;;66.97;25.87;;;6.60;99.90;;;;;;5052697;28;20049;-66
2022/11/14 06:16:01;;;;;;;68.63;26.23;;;6.60;99.90;;;;;;5051078;28;20041;-66
2022/11/14 06:18:28;;;;;;;68.25;27.52;;;6.60;99.90;;;;;;5052907;28;20045;-65
2022/11/14 06:21:01;;;;;;;61.17;24.88;;;6.60;99.90;;;;;;5052808;28;20082;-66
2022/11/14 06:23:27;;;;;;;65.63;27.15;;;6.60;99.90;;;;;;5052735;28;20041;-66
2022/11/14 06:26:01;;;;;;;59.08;24.52;;;6.50;99.90;;;;;;5052478;28;20392;-66
2022/11/14 06:28:26;;;;;;;64.78;24.83;;;6.40;99.90;;;;;;5051180;28;20045;-66
2022/11/14 06:30:57;;;;;;;71.55;25.17;;;6.50;99.90;;;;;;5052442;28;20048;-66
2022/11/14 06:33:23;;;;;;;68.18;26.27;;;6.50;99.90;;;;;;5052662;28;20064;-66
2022/11/14 06:35:48;;;;;;;59.63;25.30;;;6.50;99.90;;;;;;5052219;28;20670;-66
2022/11/14 06:38:14;;;;;;;65.38;24.67;;;6.40;99.90;;;;;;5052605;28;20045;-66
2022/11/14 06:40:39;;;;;;;67.63;25.42;;;6.40;99.90;;;;;;5052106;28;20468;-66
2022/11/14 06:43:05;;;;;;;62.10;24.55;;;6.50;99.90;;;;;;5052424;28;20044;-65
2022/11/14 06:45:31;;;;;;;60.08;23.80;;;6.40;99.90;;;;;;5051989;28;20029;-66
2022/11/14 06:47:59;;;;;;;59.58;24.90;;;6.40;99.90;;;;;;5050877;28;20040;-66
2022/11/14 06:50:25;;;;;;;67.53;24.92;;;6.40;99.90;;;;;;5052129;28;20124;-66
2022/11/14 06:52:50;;;;;;;74.28;28.15;;;6.50;99.90;;;;;;5052043;28;20548;-66
2022/11/14 06:55:16;;;;;;;73.97;26.58;;;6.40;99.90;;;;;;5049621;28;20037;-66
2022/11/14 06:57:42;;;;;;;63.95;25.10;;;6.40;99.90;;;;;;5049516;28;20040;-66
2022/11/14 07:00:08;;;;;;;67.18;25.95;;;6.40;99.90;;;;;;5051729;28;20044;-66
2022/11/14 07:02:33;;;;;;;62.45;24.23;;;6.30;99.90;;;;;;5050828;28;20045;-66
2022/11/14 07:04:59;;;;;;;65.82;23.45;;;6.40;99.90;;;;;;5051179;28;20125;-66
2022/11/14 07:07:24;;;;;;;66.28;24.70;;;6.30;99.90;;;;;;5051849;28;20456;-66
2022/11/14 07:09:50;;;;;;;69.53;25.73;;;6.30;99.90;;;;;;5052146;28;20037;-66
2022/11/14 07:12:15;;;;;;;63.85;25.00;;;6.30;99.90;;;;;;5051673;28;20033;-65
2022/11/14 07:14:41;;;;;;;67.93;25.95;;;6.40;99.90;;;;;;5051618;28;20033;-65
2022/11/14 07:17:06;;;;;;;67.47;25.58;;;6.30;99.90;;;;;;5051818;28;20043;-65
2022/11/14 07:19:32;;;;;;;67.60;24.90;;;6.30;99.90;;;;;;5050512;28;20104;-65
2022/11/14 07:21:57;;;;;;;69.05;26.52;;;6.30;99.90;;;;;;5051234;28;20041;-65
2022/11/14 07:24:23;;;;;;;68.30;25.48;;;6.30;99.90;;;;;;5051427;28;20044;-65
2022/11/14 07:26:48;;;;;;;70.18;26.05;;;6.30;99.90;;;;;;5051391;28;20667;-66
2022/11/14 07:29:14;;;;;;;65.85;24.83;;;6.20;99.90;;;;;;5051509;28;20705;-66
2022/11/14 07:31:39;;;;;;;64.65;25.20;;;6.20;99.90;;;;;;5051404;28;20056;-66
2022/11/14 07:34:05;;;;;;;63.60;25.90;;;6.30;99.90;;;;;;5049660;28;20519;-66
2022/11/14 07:36:30;;;;;;;71.88;25.85;;;6.30;99.90;;;;;;5051401;28;20036;-65
2022/11/14 07:38:56;;;;;;;71.53;28.02;;;6.30;99.90;;;;;;5051186;28;20382;-65
2022/11/14 07:41:22;;;;;;;69.55;27.05;;;6.20;99.90;;;;;;5051220;28;20041;-65
2022/11/14 07:43:47;;;;;;;66.85;24.55;;;6.30;99.90;;;;;;5051076;28;20041;-65
2022/11/14 07:46:16;;;;;;;69.03;26.08;;;6.30;99.90;;;;;;5051242;28;20525;-65
2022/11/14 07:48:42;;;;;;;64.30;24.65;;;6.30;99.90;;;;;;5051263;28;20037;-65
2022/11/14 07:51:14;;;;;;;70.55;26.63;;;6.30;99.90;;;;;;5051099;28;20437;-65
2022/11/14 07:53:39;;;;;;;66.38;25.63;;;6.30;99.90;;;;;;5050962;28;20052;-65
2022/11/14 07:56:08;;;;;;;71.25;26.20;;;6.20;99.90;;;;;;5048356;28;20397;-66
2022/11/14 07:58:38;;;;;;;67.53;25.70;;;6.30;99.90;;;;;;5050115;28;20476;-66
2022/11/14 08:01:05;;;;;;;68.00;26.95;;;6.30;99.90;;;;;;5049798;28;20041;-65
2022/11/14 08:03:30;;;;;;;68.05;24.23;;;6.30;99.90;;;;;;5050430;28;20045;-66
2022/11/14 08:06:14;;;;;;;58.47;24.33;;;6.30;99.90;;;;;;5050192;28;20037;-66
2022/11/14 08:08:39;;;;;;;69.55;25.20;;;6.30;99.90;;;;;;5037505;28;20125;-66
2022/11/14 08:11:05;;;;;;;65.88;26.88;;;6.30;99.90;;;;;;5049019;28;20489;-65
2022/11/14 08:13:31;;;;;;;68.88;25.35;;;6.40;99.90;;;;;;5029047;28;20498;-65
2022/11/14 08:15:58;;;;;;;57.65;23.27;;;6.30;99.90;;;;;;5035240;28;20453;-65
2022/11/14 08:18:24;;;;;;;60.17;23.73;;;6.40;99.90;;;;;;5050682;28;20045;-65
2022/11/14 08:20:50;;;;;;;64.15;25.48;;;6.40;99.90;;;;;;5048757;28;20462;-66
2022/11/14 08:23:15;;;;;;;65.68;24.75;;;6.40;99.90;;;;;;5049835;28;20037;-66
2022/11/14 08:25:41;;;;;;;68.05;25.58;;;6.50;99.90;;;;;;5050229;28;20041;-65
2022/11/14 08:28:07;;;;;;;61.42;26.27;;;6.50;99.90;;;;;;5049012;28;20028;-66
2022/11/14 08:30:33;;;;;;;72.55;26.75;;;6.60;99.90;;;;;;5050658;28;20048;-66
2022/11/14 08:33:03;;;;;;;63.15;25.25;;;6.60;99.90;;;;;;5050512;28;20036;-66
2022/11/14 08:35:28;;;;;;;62.80;24.52;;;6.60;99.90;;;;;;5049909;28;20036;-65
2022/11/14 08:37:54;;;;;;;67.53;26.35;;;6.60;99.90;;;;;;5050421;28;20106;-67
2022/11/14 08:40:20;;;;;;;66.15;27.27;;;6.60;99.90;;;;;;5050789;28;20045;-66
2022/11/14 08:42:45;;;;;;;68.70;26.63;;;6.60;99.90;;;;;;5049232;28;20044;-66
2022/11/14 08:45:11;;;;;;;66.68;26.83;;;6.70;99.90;;;;;;5050286;28;20055;-66
2022/11/14 08:47:36;;;;;;;69.18;25.90;;;6.70;99.90;;;;;;5050662;28;20108;-66
2022/11/14 08:50:02;;;;;;;65.20;25.25;;;6.70;99.90;;;;;;5050380;28;20048;-66
2022/11/14 08:52:28;;;;;;;60.60;24.85;;;6.60;99.90;;;;;;5050440;28;20132;-66
2022/11/14 08:54:53;;;;;;;69.45;26.10;;;6.70;99.90;;;;;;5050379;28;20124;-66
2022/11/14 08:57:19;;;;;;;69.07;25.88;;;6.70;99.90;;;;;;5050669;28;20124;-66
2022/11/14 08:59:44;;;;;;;63.78;25.17;;;6.70;99.90;;;;;;5050121;28;20144;-66
2022/11/14 09:02:12;;;;;;;71.07;25.92;;;6.70;99.90;;;;;;5050512;28;20507;-69
2022/11/14 09:04:38;;;;;;;57.17;24.33;;;6.80;99.90;;;;;;5049925;28;20047;-69
2022/11/14 09:07:03;;;;;;;68.18;26.98;;;6.80;99.90;;;;;;5050511;28;20513;-69
2022/11/14 09:09:29;;;;;;;63.80;25.83;;;6.80;99.90;;;;;;5050435;28;20451;-68
2022/11/14 09:11:54;;;;;;;68.72;26.63;;;6.90;99.90;;;;;;5050311;28;20044;-68
2022/11/14 09:14:20;;;;;;;62.85;25.27;;;6.80;99.90;;;;;;5050001;28;20045;-69
2022/11/14 09:16:48;;;;;;;60.33;22.77;;;6.90;99.90;;;;;;5050116;28;20037;-68
2022/11/14 09:19:14;;;;;;;64.82;25.38;;;6.90;99.90;;;;;;5050114;28;20111;-68
2022/11/14 09:21:39;;;;;;;62.25;23.63;;;6.90;99.90;;;;;;5050097;28;20474;-68
2022/11/14 09:24:05;;;;;;;61.38;23.63;;;6.80;99.90;;;;;;5050621;28;20037;-68
2022/11/14 09:26:32;;;;;;;61.97;23.88;;;6.80;99.90;;;;;;5053744;28;20401;-68
2022/11/14 09:28:59;;;;;;;62.00;24.88;;;6.70;99.90;;;;;;5053444;28;20489;-68
2022/11/14 09:31:25;;;;;;;60.83;24.77;;;6.70;99.90;;;;;;5053464;28;20083;-68
2022/11/14 09:33:50;;;;;;;66.20;26.30;;;6.80;99.90;;;;;;5053176;28;20072;-68
2022/11/14 09:36:17;;;;;;;58.75;22.80;;;6.80;99.90;;;;;;5053538;28;20099;-68
2022/11/14 09:38:43;;;;;;;62.30;26.88;;;6.90;99.90;;;;;;5052383;28;20132;-68
2022/11/14 09:41:20;;;;;;;60.75;26.13;;;6.80;99.90;;;;;;5052686;28;20140;-68
2022/11/14 09:44:17;;;;;;;65.22;24.83;;;6.90;99.90;;;;;;5053315;28;20090;-68
2022/11/14 09:46:49;;;;;;;66.78;24.90;;;6.90;99.90;;;;;;5035970;28;20170;-68
2022/11/14 09:49:36;;;;;;;66.20;25.57;;;6.90;99.90;;;;;;5053269;28;20505;-68
2022/11/14 09:52:26;;;;;;;63.05;24.30;;;7.00;99.90;;;;;;5053247;28;20438;-69
2022/11/14 09:55:10;;;;;;;62.92;24.73;;;7.00;99.90;;;;;;5052866;28;20041;-69
2022/11/14 09:57:37;;;;;;;60.85;25.13;;;7.10;99.90;;;;;;5052928;28;20386;-69
2022/11/14 10:00:20;;;;;;;58.25;22.83;;;7.00;99.90;;;;;;5053093;28;20041;-68
2022/11/14 10:03:12;;;;;;;60.10;23.55;;;7.10;99.90;;;;;;5053574;28;20037;-68
2022/11/14 10:06:01;;;;;;;63.33;23.77;;;7.10;99.90;;;;;;5052759;28;20516;-68
2022/11/14 10:08:46;;;;;;;63.00;24.10;;;7.20;99.90;;;;;;5053106;28;20375;-69
2022/11/14 10:11:41;;;;;;;58.60;25.58;;;7.20;99.90;;;;;;5051504;28;20098;-68
2022/11/14 10:14:25;;;;;;;53.90;23.13;;;7.20;99.90;;;;;;5052711;28;20048;-67
2022/11/14 10:17:09;;;;;;;50.72;23.00;;;7.10;99.90;;;;;;5052928;28;20072;-67
2022/11/14 10:20:14;;;;;;;48.72;22.70;;;7.20;99.90;;;;;;5052801;28;20102;-68
2022/11/14 10:22:58;;;;;;;54.40;22.48;;;7.30;99.90;;;;;;5052263;28;20537;-69
2022/11/14 10:25:40;;;;;;;53.00;23.23;;;7.40;99.90;;;;;;5034169;28;20094;-70
2022/11/14 10:28:39;;;;;;;54.17;22.87;;;7.30;99.90;;;;;;5051482;28;20391;-68
2022/11/14 10:31:04;;;;;;;53.65;21.15;;;7.30;99.90;;;;;;5051045;28;20282;-68
2022/11/14 10:33:51;;;;;;;57.08;23.45;;;7.20;99.90;;;;;;5052443;28;20089;-68
2022/11/14 10:36:55;;;;;;;52.20;21.40;;;7.20;99.90;;;;;;5051669;28;20055;-68
2022/11/14 10:39:34;;;;;;;50.05;21.77;;;7.20;99.90;;;;;;5028271;28;20048;-68
2022/11/14 10:42:08;;;;;;;49.20;21.38;;;7.30;99.90;;;;;;5051135;28;20053;-68
2022/11/14 10:44:41;;;;;;;50.38;20.95;;;7.30;99.90;;;;;;5050938;28;20095;-69
2022/11/14 10:47:14;;;;;;;51.15;21.50;;;7.40;99.90;;;;;;5052262;28;20037;-69
2022/11/14 10:49:41;;;;;;;;;;;7.40;99.90;;;;;;5052681;28;20385;-68
2022/11/14 10:52:13;;;;;;;50.20;21.75;;;7.40;99.90;;;;;;5050822;28;20443;-68
2022/11/14 10:54:45;;;;;;;48.50;21.77;;;7.40;99.90;;;;;;5052110;28;20095;-69
2022/11/14 10:57:17;;;;;;;45.45;20.52;;;7.50;99.90;;;;;;5050834;28;20130;-68
2022/11/14 10:59:42;;;;;;;45.92;20.08;;;7.60;99.90;;;;;;5051909;28;20102;-68
2022/11/14 11:02:08;;;;;;;47.70;21.13;;;7.50;99.90;;;;;;5052043;28;20417;-65
2022/11/14 11:04:36;;;;;;;49.53;20.48;;;7.60;99.90;;;;;;5051495;28;20117;-65
2022/11/14 11:07:07;;;;;;;47.85;20.10;;;7.60;99.90;;;;;;5051966;28;20390;-65
2022/11/14 11:12:35;;;;;;;51.90;20.42;;;7.70;99.90;;;;;;5049780;28;20133;-65
2022/11/14 11:15:19;;;;;;;52.08;21.08;;;7.70;99.90;;;;;;5051431;28;20083;-65
2022/11/14 11:17:59;;;;;;;46.53;19.30;;;7.80;99.90;;;;;;5051991;28;20045;-65
2022/11/14 11:20:27;;;;;;;47.67;20.52;;;7.80;99.90;;;;;;5051473;28;20405;-65
2022/11/14 11:23:10;;;;;;;49.05;19.67;;;7.80;99.90;;;;;;5050178;28;20037;-66
2022/11/14 11:25:38;;;;;;;43.72;19.67;;;7.80;99.90;;;;;;5051217;28;20040;-65
2022/11/14 11:28:14;;;;;;;41.05;18.83;;;7.80;99.90;;;;;;5051500;28;20037;-68
2022/11/14 11:30:53;;;;;;;44.95;20.33;;;7.90;99.90;;;;;;5048380;28;20045;-65
2022/11/14 11:33:19;;;;;;;38.90;18.38;;;8.00;99.90;;;;;;5051549;28;20518;-65
2022/11/14 11:35:46;;;;;;;46.30;19.95;;;8.00;99.90;;;;;;5051111;28;20080;-65
2022/11/14 11:38:12;;;;;;;44.60;20.02;;;8.00;99.90;;;;;;5051334;28;20044;-65
2022/11/14 11:40:40;;;;;;;41.97;19.80;;;8.10;99.90;;;;;;5051221;28;20033;-65
2022/11/14 11:43:26;;;;;;;41.03;18.80;;;8.20;99.90;;;;;;5051121;28;20051;-66
2022/11/14 11:45:53;;;;;;;35.85;16.58;;;8.20;99.90;;;;;;5051215;28;20033;-65
2022/11/14 11:48:26;;;;;;;42.35;19.23;;;8.20;99.90;;;;;;5050521;28;20041;-65
2022/11/14 11:50:51;;;;;;;39.75;17.83;;;8.20;99.90;;;;;;5051354;28;20045;-66
2022/11/14 11:53:26;;;;;;;42.33;18.27;;;8.20;99.90;;;;;;5050964;28;20406;-66
2022/11/14 11:56:11;;;;;;;40.60;17.95;;;8.30;99.90;;;;;;5049537;28;20064;-65
2022/11/14 11:58:55;;;;;;;37.08;16.85;;;8.40;99.90;;;;;;5050812;28;20044;-66
2022/11/14 12:01:21;;;;;;;38.33;18.77;;;8.50;99.90;;;;;;5050714;28;20045;-66
2022/11/14 12:03:51;;;;;;;38.75;17.55;;;8.50;99.90;;;;;;5050528;28;20120;-66
2022/11/14 12:06:23;;;;;;;35.75;17.00;;;8.50;99.90;;;;;;5051221;28;20398;-65
2022/11/14 12:09:42;;;;;;;38.15;18.10;;;8.50;99.90;;;;;;5050715;28;20049;-66
2022/11/14 12:12:37;;;;;;;35.47;16.10;;;8.60;99.90;;;;;;5011641;28;20075;-66
2022/11/14 12:15:31;;;;;;;39.90;18.98;;;8.60;99.90;;;;;;5028105;28;20060;-66
2022/11/14 12:17:59;;;;;;;;;;;8.70;99.90;;;;;;5047963;28;20044;-69
2022/11/14 12:20:43;;;;;;;34.83;16.40;;;8.70;99.90;;;;;;5049255;28;19925;-69
2022/11/14 12:23:48;;;;;;;33.97;17.00;;;8.70;99.90;;;;;;5051054;28;20662;-68
2022/11/14 12:26:33;;;;;;;36.13;15.77;;;8.80;99.90;;;;;;5050756;28;20091;-68
2022/11/14 12:29:17;;;;;;;34.75;16.27;;;8.80;99.90;;;;;;5049401;28;20045;-70
2022/11/14 12:31:44;;;;;;;32.08;16.48;;;8.80;99.90;;;;;;5049304;28;20051;-69
2022/11/14 12:34:29;;;;;;;29.38;15.70;;;8.80;99.90;;;;;;5050640;28;20136;-69
2022/11/14 12:36:55;;;;;;;37.67;16.75;;;8.80;99.90;;;;;;5050951;28;20658;-69
2022/11/14 12:39:25;;;;;;;34.20;17.10;;;8.90;99.90;;;;;;5050489;28;20049;-69
2022/11/14 12:42:01;;;;;;;33.55;15.80;;;8.90;99.90;;;;;;5050575;28;20416;-66
2022/11/14 12:44:26;;;;;;;36.33;16.25;;;8.90;99.90;;;;;;5049107;28;20048;-65
2022/11/14 12:47:04;;;;;;;36.20;16.85;;;8.90;99.90;;;;;;5049160;28;20045;-65
2022/11/14 12:49:51;;;;;;;34.08;16.48;;;8.90;99.90;;;;;;5049145;28;20084;-66
2022/11/14 12:52:47;;;;;;;29.60;15.60;;;9.00;99.90;;;;;;5050362;28;20036;-65
2022/11/14 12:55:25;;;;;;;31.00;14.93;;;9.00;99.90;;;;;;5050404;28;20037;-67